createdAt,value
2018-04-08T00:02:25.761Z,99.70
2018-04-08T00:04:53.358Z,99.90
2018-04-08T00:07:20.914Z,99.90
2018-04-08T00:09:48.509Z,99.90
2018-04-08T00:12:16.084Z,99.90
2018-04-08T00:14:43.665Z,99.90
2018-04-08T00:17:12.017Z,99.90
2018-04-08T00:19:39.593Z,99.90
2018-04-08T00:22:07.934Z,99.90
2018-04-08T00:24:35.565Z,99.90
2018-04-08T00:27:03.238Z,99.90
2018-04-08T00:29:30.818Z,99.90
2018-04-08T00:31:58.383Z,99.90
2018-04-08T00:34:25.996Z,99.90
2018-04-08T00:36:53.574Z,99.90
2018-04-08T00:39:21.916Z,99.90
2018-04-08T00:41:50.241Z,99.90
2018-04-08T00:44:17.796Z,99.90
2018-04-08T00:46:45.370Z,99.90
2018-04-08T00:49:12.963Z,99.90
2018-04-08T00:51:40.545Z,99.90
2018-04-08T00:54:20.581Z,99.90
2018-04-08T00:56:48.141Z,99.90
2018-04-08T00:59:15.709Z,99.90
2018-04-08T01:01:43.265Z,99.90
2018-04-08T01:04:10.822Z,99.90
2018-04-08T01:06:38.402Z,99.90
2018-04-08T01:09:06.726Z,99.90
2018-04-08T01:11:34.297Z,99.90
2018-04-08T01:14:01.893Z,99.90
2018-04-08T01:16:29.481Z,99.90
2018-04-08T01:18:57.062Z,99.90
2018-04-08T01:21:24.650Z,99.90
2018-04-08T01:23:52.206Z,99.90
2018-04-08T01:26:19.778Z,99.90
2018-04-08T01:28:47.364Z,99.90
2018-04-08T01:31:15.706Z,99.90
2018-04-08T01:33:43.265Z,99.90
2018-04-08T01:36:10.848Z,99.90
2018-04-08T01:38:38.421Z,99.90
2018-04-08T01:41:06.819Z,99.90
2018-04-08T01:43:35.166Z,99.90
2018-04-08T01:46:02.738Z,99.90
2018-04-08T01:48:31.061Z,99.90
2018-04-08T01:50:58.645Z,99.90
2018-04-08T01:53:26.221Z,99.90
2018-04-08T01:55:53.781Z,99.90
2018-04-08T01:58:21.453Z,99.90
2018-04-08T02:00:49.037Z,99.90
2018-04-08T02:03:17.377Z,99.90
2018-04-08T02:05:44.947Z,99.90
2018-04-08T02:08:12.501Z,99.90
2018-04-08T02:10:40.068Z,99.90
2018-04-08T02:13:07.646Z,99.90
2018-04-08T02:15:35.963Z,99.90
2018-04-08T02:18:03.522Z,99.90
2018-04-08T02:20:31.109Z,99.90
2018-04-08T02:22:58.723Z,99.90
2018-04-08T02:25:27.069Z,99.90
2018-04-08T02:27:54.629Z,99.90
2018-04-08T02:30:23.658Z,99.90
2018-04-08T02:32:51.980Z,99.90
2018-04-08T02:35:19.541Z,99.90
2018-04-08T02:37:47.128Z,99.90
2018-04-08T02:40:14.686Z,99.90
2018-04-08T02:42:42.257Z,99.90
2018-04-08T02:45:09.827Z,99.90
2018-04-08T02:47:38.181Z,99.90
2018-04-08T02:50:05.775Z,99.90
2018-04-08T02:52:34.134Z,99.90
2018-04-08T02:55:01.678Z,99.90
2018-04-08T02:57:30.053Z,99.90
2018-04-08T02:59:58.122Z,99.90
2018-04-08T03:02:25.678Z,99.90
2018-04-08T03:04:53.238Z,99.90
2018-04-08T03:07:20.870Z,99.90
2018-04-08T03:09:48.434Z,99.90
2018-04-08T03:12:16.047Z,99.90
2018-04-08T03:14:43.609Z,99.90
2018-04-08T03:17:11.202Z,99.90
2018-04-08T03:19:39.525Z,99.90
2018-04-08T03:22:07.097Z,99.90
2018-04-08T03:24:34.656Z,99.90
2018-04-08T03:27:02.208Z,99.90
2018-04-08T03:29:29.816Z,99.90
2018-04-08T03:31:58.157Z,99.90
2018-04-08T03:34:25.737Z,99.90
2018-04-08T03:36:53.304Z,99.90
2018-04-08T03:39:20.865Z,99.90
2018-04-08T03:41:49.197Z,99.90
2018-04-08T03:44:16.784Z,99.90
2018-04-08T03:46:44.431Z,99.90
2018-04-08T03:49:12.041Z,99.90
2018-04-08T03:51:40.369Z,99.90
2018-04-08T03:54:07.952Z,99.90
2018-04-08T03:56:35.549Z,99.90
2018-04-08T03:59:03.138Z,99.90
2018-04-08T04:01:30.696Z,99.90
2018-04-08T04:03:58.291Z,99.90
2018-04-08T04:06:25.908Z,99.90
2018-04-08T04:08:53.458Z,99.90
2018-04-08T04:11:21.017Z,99.90
2018-04-08T04:13:48.677Z,99.90
2018-04-08T04:16:17.042Z,99.90
2018-04-08T04:18:57.260Z,99.90
2018-04-08T04:21:51.588Z,99.90
2018-04-08T04:24:30.825Z,99.90
2018-04-08T04:26:59.158Z,99.90
2018-04-08T04:29:26.742Z,99.90
2018-04-08T04:31:54.293Z,99.90
2018-04-08T04:34:21.856Z,99.90
2018-04-08T04:36:49.603Z,99.90
2018-04-08T04:39:17.186Z,99.90
2018-04-08T04:41:44.774Z,99.90
2018-04-08T04:44:13.105Z,99.90
2018-04-08T04:46:40.674Z,99.90
2018-04-08T04:49:08.237Z,99.90
2018-04-08T04:51:35.813Z,99.90
2018-04-08T04:54:03.384Z,99.90
2018-04-08T04:56:30.950Z,99.90
2018-04-08T04:58:59.289Z,99.90
2018-04-08T05:01:26.902Z,99.90
2018-04-08T05:03:55.257Z,99.90
2018-04-08T05:06:22.828Z,99.90
2018-04-08T05:08:50.434Z,99.90
2018-04-08T05:11:18.017Z,99.90
2018-04-08T05:13:45.585Z,99.90
2018-04-08T05:16:13.150Z,99.90
2018-04-08T05:18:40.737Z,99.90
2018-04-08T05:21:08.284Z,99.90
2018-04-08T05:23:35.846Z,99.90
2018-04-08T05:26:03.440Z,99.90
2018-04-08T05:28:31.004Z,99.90
2018-04-08T05:30:58.582Z,99.90
2018-04-08T05:33:26.164Z,99.90
2018-04-08T05:35:53.754Z,99.90
2018-04-08T05:38:21.355Z,99.60
2018-04-08T05:40:48.918Z,99.60
2018-04-08T05:43:17.296Z,99.20
2018-04-08T05:45:44.865Z,99.20
2018-04-08T05:48:12.425Z,98.60
2018-04-08T05:50:40.031Z,98.20
2018-04-08T05:53:07.594Z,97.70
2018-04-08T05:55:35.162Z,97.20
2018-04-08T05:58:02.731Z,96.10
2018-04-08T06:00:31.085Z,93.20
2018-04-08T06:02:58.654Z,93.10
2018-04-08T06:05:26.256Z,92.90
2018-04-08T06:07:54.565Z,91.40
2018-04-08T06:10:22.138Z,91.10
2018-04-08T06:12:49.720Z,90.60
2018-04-08T06:15:17.302Z,90.00
2018-04-08T06:17:45.642Z,90.60
2018-04-08T06:20:13.228Z,90.50
2018-04-08T06:22:40.781Z,90.20
2018-04-08T06:25:08.389Z,88.30
2018-04-08T06:27:36.684Z,87.70
2018-04-08T06:30:04.345Z,87.70
2018-04-08T06:32:31.911Z,87.80
2018-04-08T06:34:59.466Z,88.40
2018-04-08T06:37:27.807Z,85.90
2018-04-08T06:39:56.133Z,84.60
2018-04-08T06:42:23.745Z,84.50
2018-04-08T06:44:52.057Z,82.50
2018-04-08T06:47:19.650Z,82.40
2018-04-08T06:49:47.199Z,80.50
2018-04-08T06:52:14.803Z,77.80
2018-04-08T06:54:43.181Z,76.20
2018-04-08T06:57:10.749Z,76.10
2018-04-08T06:59:39.056Z,72.70
2018-04-08T07:02:06.648Z,72.60
2018-04-08T07:04:34.221Z,70.50
2018-04-08T07:07:01.802Z,69.20
2018-04-08T07:09:29.368Z,68.10
2018-04-08T07:11:57.745Z,64.20
2018-04-08T07:14:25.322Z,64.20
2018-04-08T07:16:53.680Z,59.80
2018-04-08T07:19:22.086Z,58.90
2018-04-08T07:21:49.665Z,58.80
2018-04-08T07:24:17.287Z,58.60
2018-04-08T07:26:45.641Z,56.90
2018-04-08T07:29:13.235Z,56.90
2018-04-08T07:31:41.552Z,54.10
2018-04-08T07:34:09.205Z,54.10
2018-04-08T07:36:36.794Z,53.00
2018-04-08T07:39:04.370Z,52.50
2018-04-08T07:41:31.927Z,52.10
2018-04-08T07:43:59.513Z,51.00
2018-04-08T07:46:27.854Z,51.40
2018-04-08T07:48:55.445Z,51.30
2018-04-08T07:51:23.813Z,50.30
2018-04-08T07:53:51.399Z,49.70
2018-04-08T07:56:19.732Z,47.70
2018-04-08T07:58:47.320Z,47.60
2018-04-08T08:01:14.903Z,49.00
2018-04-08T08:03:43.247Z,51.00
2018-04-08T08:06:10.844Z,51.00
2018-04-08T08:08:39.161Z,51.00
2018-04-08T08:11:06.776Z,51.00
2018-04-08T08:13:35.101Z,52.00
2018-04-08T08:16:02.702Z,51.90
2018-04-08T08:18:30.293Z,52.90
2018-04-08T08:20:57.897Z,53.10
2018-04-08T08:23:25.465Z,52.80
2018-04-08T08:25:53.166Z,52.10
2018-04-08T08:28:21.530Z,50.70
2018-04-08T08:30:49.099Z,50.70
2018-04-08T08:33:17.478Z,50.60
2018-04-08T08:35:45.833Z,50.20
2018-04-08T08:38:13.473Z,50.10
2018-04-08T08:40:41.872Z,50.30
2018-04-08T08:43:09.476Z,50.20
2018-04-08T08:45:37.049Z,50.00
2018-04-08T08:48:04.649Z,48.30
2018-04-08T08:50:32.221Z,48.60
2018-04-08T08:52:59.826Z,47.90
2018-04-08T08:55:28.173Z,48.10
2018-04-08T08:57:55.798Z,48.00
2018-04-08T09:00:23.348Z,47.10
2018-04-08T09:02:50.917Z,49.50
2018-04-08T09:05:18.508Z,46.00
2018-04-08T09:07:46.081Z,48.00
2018-04-08T09:10:13.657Z,45.70
2018-04-08T09:12:41.989Z,44.20
2018-04-08T09:15:09.579Z,44.10
2018-04-08T09:17:37.156Z,46.70
2018-04-08T09:20:08.995Z,44.80
2018-04-08T09:22:53.281Z,44.60
2018-04-08T09:25:32.337Z,44.20
2018-04-08T09:27:59.987Z,44.20
2018-04-08T09:30:27.560Z,45.60
2018-04-08T09:32:55.206Z,43.90
2018-04-08T09:35:22.788Z,45.30
2018-04-08T09:37:50.434Z,45.90
2018-04-08T09:40:18.047Z,42.90
2018-04-08T09:42:45.639Z,45.40
2018-04-08T09:45:13.962Z,42.30
2018-04-08T09:47:41.557Z,42.20
2018-04-08T09:50:09.938Z,43.60
2018-04-08T09:52:37.519Z,43.60
2018-04-08T09:55:05.891Z,39.90
2018-04-08T09:57:48.326Z,39.80
2018-04-08T10:00:21.669Z,40.10
2018-04-08T10:02:54.793Z,37.80
2018-04-08T10:05:23.164Z,37.50
2018-04-08T10:07:51.455Z,42.70
2018-04-08T10:10:19.778Z,42.10
2018-04-08T10:12:47.344Z,42.10
2018-04-08T10:15:14.909Z,44.00
2018-04-08T10:17:42.489Z,42.80
2018-04-08T10:20:10.056Z,42.30
2018-04-08T10:22:37.656Z,44.30
2018-04-08T10:25:05.226Z,44.40
2018-04-08T10:27:32.793Z,45.40
2018-04-08T10:30:00.368Z,41.90
2018-04-08T10:32:27.978Z,44.30
2018-04-08T10:34:56.313Z,42.90
2018-04-08T10:37:23.898Z,42.80
2018-04-08T10:39:51.465Z,40.20
2018-04-08T10:42:19.048Z,39.80
2018-04-08T10:44:47.406Z,42.00
2018-04-08T10:47:15.798Z,42.00
2018-04-08T10:49:44.156Z,42.00
2018-04-08T10:52:11.731Z,42.00
2018-04-08T10:54:39.339Z,41.80
2018-04-08T10:57:06.930Z,42.30
2018-04-08T10:59:34.497Z,39.80
2018-04-08T11:02:02.179Z,40.30
2018-04-08T11:04:29.753Z,39.40
2018-04-08T11:06:58.105Z,39.30
2018-04-08T11:09:25.688Z,39.20
2018-04-08T11:11:54.101Z,39.40
2018-04-08T11:14:21.672Z,39.40
2018-04-08T11:16:49.271Z,42.80
2018-04-08T11:19:17.766Z,38.70
2018-04-08T11:21:46.146Z,39.00
2018-04-08T11:24:14.480Z,38.70
2018-04-08T11:26:42.086Z,38.70
2018-04-08T11:29:10.434Z,37.80
2018-04-08T11:31:38.106Z,37.80
2018-04-08T11:34:05.620Z,36.90
2018-04-08T11:36:33.270Z,39.10
2018-04-08T11:39:00.893Z,37.60
2018-04-08T11:41:28.485Z,39.50
2018-04-08T11:43:56.900Z,38.00
2018-04-08T11:46:25.249Z,37.10
2018-04-08T11:48:53.585Z,37.40
2018-04-08T11:51:21.161Z,37.40
2018-04-08T11:53:50.454Z,40.50
2018-04-08T11:56:18.044Z,40.20
2018-04-08T11:58:46.373Z,38.40
2018-04-08T12:01:14.025Z,38.20
2018-04-08T12:03:41.613Z,40.90
2018-04-08T12:06:09.225Z,41.00
2018-04-08T12:08:36.817Z,38.70
2018-04-08T12:11:04.405Z,37.50
2018-04-08T12:13:32.015Z,36.40
2018-04-08T12:15:59.602Z,37.70
2018-04-08T12:18:27.174Z,38.20
2018-04-08T12:20:54.752Z,36.90
2018-04-08T12:23:22.442Z,40.20
2018-04-08T12:25:50.806Z,37.90
2018-04-08T12:28:18.370Z,37.90
2018-04-08T12:30:46.797Z,38.40
2018-04-08T12:33:14.396Z,40.40
2018-04-08T12:35:41.977Z,37.40
2018-04-08T12:38:10.313Z,38.70
2018-04-08T12:40:37.908Z,38.60
2018-04-08T12:43:05.456Z,36.30
2018-04-08T12:45:33.037Z,37.50
2018-04-08T12:48:02.289Z,37.30
2018-04-08T12:50:29.929Z,37.20
2018-04-08T12:52:57.492Z,37.60
2018-04-08T12:55:25.069Z,36.60
2018-04-08T12:57:52.642Z,39.20
2018-04-08T13:00:20.218Z,38.70
2018-04-08T13:02:47.801Z,36.70
2018-04-08T13:05:16.138Z,38.30
2018-04-08T13:07:43.744Z,37.60
2018-04-08T13:10:11.314Z,38.30
2018-04-08T13:12:39.668Z,38.00
2018-04-08T13:15:07.251Z,37.90
2018-04-08T13:17:35.603Z,37.90
2018-04-08T13:20:03.151Z,37.80
2018-04-08T13:22:30.771Z,38.60
2018-04-08T13:24:58.365Z,37.40
2018-04-08T13:27:25.943Z,38.70
2018-04-08T13:29:53.527Z,38.90
2018-04-08T13:32:21.110Z,40.80
2018-04-08T13:34:49.456Z,39.80
2018-04-08T13:37:17.014Z,39.70
2018-04-08T13:39:44.585Z,39.90
2018-04-08T13:42:12.145Z,39.10
2018-04-08T13:44:39.706Z,41.70
2018-04-08T13:47:07.290Z,40.60
2018-04-08T13:49:35.648Z,40.60
2018-04-08T13:52:03.195Z,41.20
2018-04-08T13:54:30.883Z,40.90
2018-04-08T13:56:58.413Z,38.80
2018-04-08T13:59:26.010Z,39.30
2018-04-08T14:01:54.341Z,42.00
2018-04-08T14:04:21.928Z,41.90
2018-04-08T14:06:51.032Z,41.60
2018-04-08T14:09:18.633Z,41.20
2018-04-08T14:11:46.208Z,40.90
2018-04-08T14:14:13.772Z,41.70
2018-04-08T14:16:41.342Z,42.40
2018-04-08T14:19:08.939Z,41.60
2018-04-08T14:21:36.539Z,41.80
2018-04-08T14:24:04.110Z,42.80
2018-04-08T14:26:31.672Z,41.60
2018-04-08T14:28:59.273Z,41.80
2018-04-08T14:31:26.842Z,43.30
2018-04-08T14:33:54.405Z,42.90
2018-04-08T14:36:22.766Z,42.80
2018-04-08T14:38:50.354Z,42.70
2018-04-08T14:41:18.742Z,42.40
2018-04-08T14:43:47.073Z,43.00
2018-04-08T14:46:14.662Z,42.90
2018-04-08T14:48:42.239Z,41.90
2018-04-08T14:51:10.854Z,42.50
2018-04-08T14:53:40.105Z,42.30
2018-04-08T14:56:07.706Z,41.70
2018-04-08T14:58:35.278Z,42.30
2018-04-08T15:01:02.844Z,42.40
2018-04-08T15:03:30.446Z,41.40
2018-04-08T15:05:58.005Z,41.60
2018-04-08T15:08:25.621Z,41.80
2018-04-08T15:10:54.137Z,42.90
2018-04-08T15:13:21.708Z,41.40
2018-04-08T15:15:49.284Z,42.80
2018-04-08T15:18:16.868Z,40.70
2018-04-08T15:20:45.291Z,41.20
2018-04-08T15:23:12.983Z,42.00
2018-04-08T15:25:40.588Z,44.00
2018-04-08T15:28:08.266Z,43.40
2018-04-08T15:30:35.856Z,42.80
2018-04-08T15:33:03.418Z,42.50
2018-04-08T15:35:30.984Z,43.80
2018-04-08T15:37:58.599Z,43.90
2018-04-08T15:40:26.178Z,44.10
2018-04-08T15:42:53.768Z,43.40
2018-04-08T15:45:21.346Z,43.10
2018-04-08T15:47:48.917Z,44.90
2018-04-08T15:50:17.302Z,44.70
2018-04-08T15:52:45.701Z,44.60
2018-04-08T15:55:48.776Z,44.80
2018-04-08T15:58:17.196Z,44.90
2018-04-08T16:00:44.784Z,45.00
2018-04-08T16:03:12.380Z,43.00
2018-04-08T16:05:40.029Z,44.20
2018-04-08T16:08:08.511Z,45.50
2018-04-08T16:10:36.882Z,45.30
2018-04-08T16:13:04.549Z,45.20
2018-04-08T16:15:32.914Z,46.60
2018-04-08T16:18:00.563Z,46.50
2018-04-08T16:20:33.496Z,45.90
2018-04-08T16:23:02.110Z,45.60
2018-04-08T16:25:29.695Z,45.40
2018-04-08T16:27:57.457Z,47.00
2018-04-08T16:30:25.055Z,46.60
2018-04-08T16:32:53.398Z,48.10
2018-04-08T16:35:20.997Z,48.00
2018-04-08T16:37:51.003Z,48.30
2018-04-08T16:40:23.137Z,48.20
2018-04-08T16:42:50.702Z,48.60
2018-04-08T16:45:18.318Z,47.90
2018-04-08T16:47:45.933Z,48.20
2018-04-08T16:50:15.707Z,47.70
2018-04-08T16:52:43.422Z,49.10
2018-04-08T16:55:11.004Z,48.60
2018-04-08T16:57:38.595Z,48.70
2018-04-08T17:00:06.164Z,49.50
2018-04-08T17:02:33.786Z,49.90
2018-04-08T17:05:02.153Z,49.80
2018-04-08T17:07:29.747Z,49.70
2018-04-08T17:09:58.079Z,48.90
2018-04-08T17:12:25.670Z,48.90
2018-04-08T17:14:54.013Z,49.30
2018-04-08T17:17:21.619Z,49.20
2018-04-08T17:19:49.987Z,49.70
2018-04-08T17:22:18.379Z,50.30
2018-04-08T17:24:46.706Z,50.80
2018-04-08T17:27:15.060Z,51.00
2018-04-08T17:29:42.649Z,51.00
2018-04-08T17:32:10.228Z,51.60
2018-04-08T17:34:37.841Z,52.20
2018-04-08T17:37:05.519Z,52.60
2018-04-08T17:39:33.129Z,52.90
2018-04-08T17:42:00.702Z,53.20
2018-04-08T17:44:29.068Z,54.20
2018-04-08T17:46:56.670Z,54.20
2018-04-08T17:49:24.261Z,54.30
2018-04-08T17:51:51.871Z,53.90
2018-04-08T17:54:20.262Z,54.50
2018-04-08T17:56:48.642Z,54.60
2018-04-08T17:59:16.989Z,54.90
2018-04-08T18:01:44.575Z,54.80
2018-04-08T18:04:12.909Z,56.40
2018-04-08T18:06:40.509Z,56.40
2018-04-08T18:09:08.905Z,57.00
2018-04-08T18:11:37.261Z,57.90
2018-04-08T18:14:06.230Z,59.00
2018-04-08T18:16:33.822Z,58.90
2018-04-08T18:19:02.190Z,64.40
2018-04-08T18:21:29.782Z,64.30
2018-04-08T18:23:57.358Z,67.10
2018-04-08T18:26:24.969Z,70.50
2018-04-08T18:28:52.551Z,73.80
2018-04-08T18:31:20.986Z,82.60
2018-04-08T18:33:48.670Z,82.60
2018-04-08T18:36:17.205Z,90.00
2018-04-08T18:38:44.913Z,89.70
2018-04-08T18:41:12.487Z,91.40
2018-04-08T18:43:40.092Z,92.60
2018-04-08T18:46:07.672Z,96.50
2018-04-08T18:48:35.419Z,98.00
2018-04-08T18:51:03.085Z,98.80
2018-04-08T18:53:30.690Z,99.90
2018-04-08T18:55:58.326Z,99.90
2018-04-08T18:58:25.938Z,99.90
2018-04-08T19:00:54.269Z,99.90
2018-04-08T19:03:21.894Z,99.90
2018-04-08T19:05:49.495Z,99.90
2018-04-08T19:08:17.130Z,99.90
2018-04-08T19:10:45.480Z,99.90
2018-04-08T19:13:13.818Z,99.90
2018-04-08T19:15:41.421Z,99.90
2018-04-08T19:18:09.941Z,99.90
2018-04-08T19:20:43.227Z,99.90
2018-04-08T19:23:11.812Z,99.90
2018-04-08T19:25:39.466Z,99.90
2018-04-08T19:28:07.172Z,99.90
2018-04-08T19:30:34.772Z,99.90
2018-04-08T19:33:03.125Z,99.90
2018-04-08T19:35:30.756Z,99.90
2018-04-08T19:37:58.456Z,99.90
2018-04-08T19:40:26.046Z,99.90
2018-04-08T19:42:55.835Z,99.90
2018-04-08T19:45:24.914Z,99.90
2018-04-08T20:00:53.330Z,99.90
2018-04-08T20:03:21.662Z,99.90
2018-04-08T20:05:49.270Z,99.90
2018-04-08T20:08:17.698Z,99.90
2018-04-08T20:10:45.295Z,99.90
2018-04-08T20:13:13.639Z,99.90
2018-04-08T20:15:41.250Z,99.90
2018-04-08T20:18:09.675Z,99.90
2018-04-08T20:20:37.256Z,99.90
2018-04-08T20:23:04.855Z,99.90
2018-04-08T20:25:33.218Z,99.90
2018-04-08T20:28:01.634Z,99.90
2018-04-08T20:30:29.228Z,99.90
2018-04-08T20:32:56.847Z,99.90
2018-04-08T20:35:25.226Z,99.90
2018-04-08T20:37:52.857Z,99.90
2018-04-08T20:40:20.474Z,99.90
2018-04-08T20:42:48.784Z,99.90
2018-04-08T20:45:16.417Z,99.90
2018-04-08T20:47:44.770Z,99.90
2018-04-08T20:50:12.376Z,99.90
2018-04-08T20:52:39.977Z,99.90
2018-04-08T20:55:08.325Z,99.90
2018-04-08T20:57:35.899Z,99.90
2018-04-08T21:00:03.473Z,99.90
2018-04-08T21:02:31.809Z,99.90
2018-04-08T21:04:59.471Z,99.90
2018-04-08T21:07:27.102Z,99.90
2018-04-08T21:09:54.683Z,99.90
2018-04-08T21:12:22.289Z,99.90
2018-04-08T21:14:49.887Z,99.90
2018-04-08T21:17:17.484Z,99.90
2018-04-08T21:19:45.108Z,99.90
2018-04-08T21:22:12.720Z,99.90
2018-04-08T21:24:40.325Z,99.90
2018-04-08T21:27:08.683Z,99.90
2018-04-08T21:29:36.302Z,99.90
2018-04-08T21:32:03.890Z,99.90
2018-04-08T21:34:31.522Z,99.90
2018-04-08T21:36:59.099Z,99.90
2018-04-08T21:39:26.677Z,99.90
2018-04-08T21:41:54.269Z,99.90
2018-04-08T21:44:22.628Z,99.90
2018-04-08T21:46:50.262Z,99.90
2018-04-08T21:49:18.664Z,99.90
2018-04-08T21:51:46.194Z,99.90
2018-04-08T21:54:13.785Z,99.90
2018-04-08T21:56:42.202Z,99.90
2018-04-08T21:59:09.805Z,99.90
2018-04-08T22:01:37.417Z,99.90
2018-04-08T22:04:04.997Z,99.90
2018-04-08T22:06:32.602Z,99.90
2018-04-08T22:09:00.191Z,99.90
2018-04-08T22:11:27.814Z,99.90
2018-04-08T22:13:55.377Z,99.90
2018-04-08T22:16:22.977Z,99.90
2018-04-08T22:18:51.324Z,99.90
2018-04-08T22:21:18.906Z,99.90
2018-04-08T22:23:47.252Z,99.90
2018-04-08T22:26:14.856Z,99.90
2018-04-08T22:28:43.238Z,99.90
2018-04-08T22:31:11.592Z,99.90
2018-04-08T22:33:39.174Z,99.90
2018-04-08T22:36:07.500Z,99.90
2018-04-08T22:38:35.109Z,99.90
2018-04-08T22:41:02.702Z,99.90
2018-04-08T22:43:30.284Z,99.90
2018-04-08T22:45:57.873Z,99.90
2018-04-08T22:48:25.493Z,99.90
2018-04-08T22:50:53.049Z,99.90
2018-04-08T22:53:20.645Z,99.90
2018-04-08T22:55:48.212Z,99.90
2018-04-08T22:58:15.794Z,99.90
2018-04-08T23:00:44.129Z,99.90
2018-04-08T23:03:11.817Z,99.90
2018-04-08T23:05:39.395Z,99.90
2018-04-08T23:08:06.979Z,99.90
2018-04-08T23:10:34.550Z,99.90
2018-04-08T23:13:02.145Z,99.90
2018-04-08T23:15:29.708Z,99.90
2018-04-08T23:17:57.527Z,99.90
2018-04-08T23:20:25.866Z,99.90
2018-04-08T23:22:53.464Z,99.90
2018-04-08T23:25:21.883Z,99.90
2018-04-08T23:27:49.476Z,99.90
2018-04-08T23:30:17.060Z,99.90
2018-04-08T23:32:45.392Z,99.90
2018-04-08T23:35:13.080Z,99.90
2018-04-08T23:37:40.667Z,99.90
2018-04-08T23:40:09.034Z,99.90
2018-04-08T23:42:36.586Z,99.90
2018-04-08T23:45:04.185Z,99.90
2018-04-08T23:47:31.768Z,99.90
2018-04-08T23:49:59.364Z,99.90
2018-04-08T23:52:26.959Z,99.90
2018-04-08T23:54:55.290Z,99.90
2018-04-08T23:57:22.869Z,99.90
2018-04-08T23:59:50.468Z,99.90
